Time;durP1;ratioP1;P1;durP2;ratioP2;P2;SDS_P1;SDS_P2;PMS_P1;PMS_P2;Temp;Humidity;BMP_temperature;BMP_pressure;BME280_temperature;BME280_humidity;BME280_pressure;Samples;Min_cycle;Max_cycle;Signal;HPM_P1;HPM_P2
2023/11/17 00:01:58;;;;;;;5.83;3.40;;;;;;;6.15;100.00;97531.91;5060210;28;20238;-79
2023/11/17 00:04:25;;;;;;;4.50;3.37;;;;;;;6.14;100.00;97544.19;5059779;28;20215;-82
2023/11/17 00:06:51;;;;;;;4.77;3.23;;;;;;;6.13;100.00;97557.41;5061978;28;20211;-81
2023/11/17 00:09:18;;;;;;;3.90;2.93;;;;;;;6.13;100.00;97562.66;5061703;28;20233;-81
2023/11/17 00:11:44;;;;;;;4.80;2.80;;;;;;;6.15;100.00;97593.09;5061602;28;20232;-81
2023/11/17 00:14:11;;;;;;;3.27;2.87;;;;;;;6.06;100.00;97590.19;5062264;28;20212;-81
2023/11/17 00:16:39;;;;;;;3.67;2.83;;;;;;;6.11;100.00;97620.44;5062245;28;20587;-81
2023/11/17 00:19:06;;;;;;;4.30;2.67;;;;;;;6.06;100.00;97614.66;5062108;28;20219;-81
2023/11/17 00:21:34;;;;;;;4.23;2.33;;;;;;;6.09;100.00;97627.56;5062427;28;20322;-81
2023/11/17 00:24:00;;;;;;;4.57;2.87;;;;;;;6.08;100.00;97638.13;5061565;28;20211;-81
2023/11/17 00:26:27;;;;;;;3.13;2.53;;;;;;;6.03;100.00;97648.06;5062193;28;20219;-81
2023/11/17 00:28:54;;;;;;;3.03;2.43;;;;;;;6.02;100.00;97647.22;5062187;28;20299;-81
2023/11/17 00:31:20;;;;;;;3.17;2.57;;;;;;;6.02;100.00;97662.97;5061630;28;20239;-81
2023/11/17 00:33:48;;;;;;;3.23;2.30;;;;;;;6.00;100.00;97675.34;5061752;28;20219;-81
2023/11/17 00:36:14;;;;;;;2.53;2.30;;;;;;;5.95;100.00;97685.25;5061769;28;20221;-81
2023/11/17 00:38:41;;;;;;;4.13;2.13;;;;;;;5.96;100.00;97692.19;5061024;28;20775;-81
2023/11/17 00:41:08;;;;;;;4.03;2.40;;;;;;;5.99;100.00;97712.13;5060882;28;20251;-81
2023/11/17 00:43:34;;;;;;;2.83;2.17;;;;;;;5.91;100.00;97725.69;5061925;28;20218;-80
2023/11/17 00:46:01;;;;;;;3.67;2.00;;;;;;;5.90;100.00;97725.75;5061477;28;20587;-81
2023/11/17 00:48:29;;;;;;;2.20;1.97;;;;;;;5.86;100.00;97735.59;5062220;28;20204;-80
2023/11/17 00:50:57;;;;;;;2.07;1.30;;;;;;;5.85;100.00;97744.38;5061852;28;20236;-81
2023/11/17 00:53:26;;;;;;;3.17;2.20;;;;;;;5.86;100.00;97759.19;5061165;28;20227;-80
2023/11/17 00:55:53;;;;;;;1.87;1.70;;;;;;;5.80;100.00;97767.41;5061557;28;20213;-81
2023/11/17 00:58:20;;;;;;;3.17;1.73;;;;;;;5.76;100.00;97775.50;5061916;28;20242;-81
2023/11/17 01:00:46;;;;;;;1.50;1.40;;;;;;;5.79;100.00;97799.75;5061985;28;20539;-81
2023/11/17 01:03:14;;;;;;;1.90;1.27;;;;;;;5.79;100.00;97806.78;5061677;28;20219;-81
2023/11/17 01:05:40;;;;;;;1.30;1.20;;;;;;;5.70;100.00;97815.16;5061943;28;20234;-81
2023/11/17 01:08:08;;;;;;;2.10;1.63;;;;;;;5.64;100.00;97824.22;5061432;28;20214;-81
2023/11/17 01:10:35;;;;;;;1.20;1.10;;;;;;;5.59;100.00;97834.09;5061699;28;20600;-81
2023/11/17 01:13:03;;;;;;;1.70;1.23;;;;;;;5.58;100.00;97839.41;5061719;28;20208;-81
2023/11/17 01:15:30;;;;;;;1.40;1.30;;;;;;;5.60;100.00;97845.41;5058647;28;20662;-81
2023/11/17 01:17:56;;;;;;;1.60;1.23;;;;;;;5.52;100.00;97855.47;5059542;28;20216;-81
2023/11/17 01:20:23;;;;;;;1.20;1.00;;;;;;;5.52;100.00;97856.34;5064094;28;20206;-81
2023/11/17 01:22:49;;;;;;;1.33;1.07;;;;;;;5.55;100.00;97861.41;5065337;28;20245;-81
2023/11/17 01:25:17;;;;;;;2.10;1.40;;;;;;;5.54;100.00;97874.56;5064488;28;20236;-81
2023/11/17 01:27:44;;;;;;;1.60;1.30;;;;;;;5.54;100.00;97893.78;5063349;28;20207;-81
2023/11/17 01:30:11;;;;;;;1.50;1.40;;;;;;;5.61;100.00;97897.78;5062558;28;20211;-81
2023/11/17 01:32:38;;;;;;;1.80;1.33;;;;;;;5.56;100.00;97905.03;5062326;28;20237;-81
2023/11/17 01:35:05;;;;;;;1.63;1.40;;;;;;;5.58;100.00;97908.44;5061433;28;20222;-81
2023/11/17 01:37:32;;;;;;;1.80;1.37;;;;;;;5.57;100.00;97925.06;5061588;28;20301;-81
2023/11/17 01:39:59;;;;;;;2.33;1.60;;;;;;;5.58;100.00;97937.28;5062392;28;20600;-81
2023/11/17 01:42:31;;;;;;;1.50;1.40;;;;;;;5.55;100.00;97939.22;5060277;28;20250;-80
2023/11/17 01:44:58;;;;;;;2.20;1.80;;;;;;;5.56;100.00;97941.72;5059184;28;20225;-81
2023/11/17 01:47:25;;;;;;;2.53;1.93;;;;;;;5.54;100.00;97947.97;5061822;28;20219;-81
2023/11/17 01:49:51;;;;;;;4.07;1.77;;;;;;;5.55;100.00;97953.13;5061098;28;20669;-81
2023/11/17 01:52:19;;;;;;;3.33;1.50;;;;;;;5.53;100.00;97962.00;5061318;28;20236;-81
2023/11/17 01:54:48;;;;;;;2.57;1.63;;;;;;;5.52;100.00;97962.94;5061467;28;20224;-81
2023/11/17 01:57:14;;;;;;;1.50;1.40;;;;;;;5.50;100.00;97964.81;5061436;28;20211;-81
2023/11/17 01:59:42;;;;;;;1.93;1.50;;;;;;;5.56;100.00;97969.72;5060442;28;20220;-80
2023/11/17 02:02:09;;;;;;;3.60;1.63;;;;;;;5.53;100.00;97981.22;5057579;28;20227;-80
2023/11/17 02:04:36;;;;;;;2.90;2.03;;;;;;;5.54;100.00;97985.53;5057537;28;20218;-81
2023/11/17 02:07:12;;;;;;;2.97;1.90;;;;;;;5.51;100.00;97990.91;5058138;28;20211;-80
2023/11/17 02:09:46;;;;;;;4.50;1.90;;;;;;;5.54;100.00;97985.53;5053666;28;20218;-80
2023/11/17 02:12:23;;;;;;;2.70;1.93;;;;;;;5.51;100.00;98006.63;5053030;28;20235;-80
2023/11/17 02:14:55;;;;;;;2.43;1.90;;;;;;;5.52;100.00;98002.25;5053335;28;20278;-80
2023/11/17 02:17:28;;;;;;;2.53;2.00;;;;;;;5.52;100.00;98013.59;5053121;28;20210;-80
2023/11/17 02:19:59;;;;;;;2.70;2.20;;;;;;;5.50;100.00;98020.66;5052827;28;20213;-80
2023/11/17 02:22:30;;;;;;;5.13;2.33;;;;;;;5.53;100.00;98015.28;5052689;28;20242;-80
2023/11/17 02:25:02;;;;;;;3.47;2.60;;;;;;;5.56;100.00;98022.16;5052777;28;20566;-80
2023/11/17 02:27:45;;;;;;;5.17;2.83;;;;;;;5.55;100.00;98023.91;5052840;28;20567;-80
2023/11/17 02:30:19;;;;;;;5.13;2.97;;;;;;;5.57;100.00;98029.91;5053189;28;20740;-80
2023/11/17 02:32:48;;;;;;;5.20;3.50;;;;;;;5.57;100.00;98037.78;5052867;28;20242;-80
2023/11/17 02:35:15;;;;;;;4.17;3.27;;;;;;;5.58;100.00;98044.75;5052484;28;20238;-80
2023/11/17 02:37:42;;;;;;;3.50;2.90;;;;;;;5.65;100.00;98042.63;5052688;28;20325;-80
2023/11/17 02:40:18;;;;;;;4.77;3.33;;;;;;;5.63;100.00;98045.34;5052815;28;20211;-82
2023/11/17 02:42:47;;;;;;;6.67;3.30;;;;;;;5.69;100.00;98052.88;5052555;28;20245;-80
2023/11/17 02:45:19;;;;;;;3.77;3.03;;;;;;;5.68;100.00;98051.19;5053029;28;20214;-80
2023/11/17 02:47:48;;;;;;;5.33;3.50;;;;;;;5.70;100.00;98065.09;5052969;28;20213;-80
2023/11/17 02:50:18;;;;;;;6.80;3.27;;;;;;;5.75;100.00;98073.56;5053098;28;20211;-80
2023/11/17 02:53:00;;;;;;;5.73;3.33;;;;;;;5.74;100.00;98066.63;5052776;28;20263;-80
2023/11/17 02:55:29;;;;;;;7.23;3.43;;;;;;;5.74;100.00;98068.41;5052740;28;20222;-80
2023/11/17 02:57:58;;;;;;;6.53;3.43;;;;;;;5.74;100.00;98071.88;5053334;28;20305;-81
2023/11/17 03:00:26;;;;;;;7.60;3.43;;;;;;;5.73;100.00;98080.66;5053164;28;20627;-80
2023/11/17 03:02:53;;;;;;;7.57;4.40;;;;;;;5.75;100.00;98083.22;5053430;28;20227;-80
2023/11/17 03:05:23;;;;;;;8.17;4.90;;;;;;;5.78;100.00;98089.16;5052904;28;20234;-80
2023/11/17 03:07:50;;;;;;;6.77;4.03;;;;;;;5.80;100.00;98092.56;5053173;28;20275;-81
2023/11/17 03:10:18;;;;;;;8.27;4.67;;;;;;;5.84;100.00;98099.34;5053900;28;20214;-80
2023/11/17 03:12:45;;;;;;;9.97;4.90;;;;;;;5.81;100.00;98098.66;5053438;28;20242;-80
2023/11/17 03:15:11;;;;;;;7.43;4.43;;;;;;;5.82;100.00;98101.22;5053376;28;20600;-80
2023/11/17 03:17:39;;;;;;;8.77;4.50;;;;;;;5.80;100.00;98097.81;5053629;28;20218;-80
2023/11/17 03:20:14;;;;;;;7.80;4.23;;;;;;;5.82;100.00;98111.72;5052562;28;20219;-80
2023/11/17 03:22:40;;;;;;;7.13;5.03;;;;;;;5.81;100.00;98104.75;5052489;28;20230;-80
2023/11/17 03:25:07;;;;;;;8.40;5.03;;;;;;;5.85;100.00;98106.28;5052464;28;20299;-81
2023/11/17 03:27:34;;;;;;;8.03;5.00;;;;;;;5.86;100.00;98107.97;5052479;28;20564;-80
2023/11/17 03:30:01;;;;;;;8.67;4.37;;;;;;;5.85;100.00;98111.53;5052527;28;20204;-80
2023/11/17 03:32:28;;;;;;;7.40;4.37;;;;;;;5.88;100.00;98113.16;5051744;28;20609;-80
2023/11/17 03:34:56;;;;;;;5.80;3.67;;;;;;;5.87;100.00;98125.41;5051897;28;20214;-80
2023/11/17 03:37:22;;;;;;;7.30;4.10;;;;;;;5.84;100.00;98125.59;5052101;28;20697;-80
2023/11/17 03:39:49;;;;;;;6.80;4.20;;;;;;;5.88;100.00;98132.38;5052403;28;20239;-80
2023/11/17 03:42:18;;;;;;;8.53;4.67;;;;;;;5.86;100.00;98134.22;5052082;28;20243;-80
2023/11/17 03:44:45;;;;;;;6.90;4.43;;;;;;;5.89;100.00;98136.69;5052247;28;20192;-80
2023/11/17 03:47:12;;;;;;;8.03;4.60;;;;;;;5.87;100.00;98143.78;5052261;28;20702;-80
2023/11/17 03:49:38;;;;;;;7.90;4.83;;;;;;;5.92;100.00;98143.56;5052192;28;20208;-80
2023/11/17 03:52:06;;;;;;;7.93;4.53;;;;;;;5.93;100.00;98147.88;5052151;28;20722;-80
2023/11/17 03:54:33;;;;;;;6.10;4.43;;;;;;;5.90;100.00;98155.88;5052202;28;20604;-80
2023/11/17 03:57:01;;;;;;;8.00;4.53;;;;;;;5.96;100.00;98163.44;5052783;28;20211;-80
2023/11/17 03:59:30;;;;;;;6.63;4.40;;;;;;;5.96;100.00;98153.81;5052496;28;20215;-81
2023/11/17 04:01:57;;;;;;;9.57;4.57;;;;;;;5.94;100.00;98168.78;5052126;28;20228;-80
2023/11/17 04:04:25;;;;;;;7.23;4.03;;;;;;;5.93;100.00;98164.44;5052164;28;20214;-81
2023/11/17 04:06:54;;;;;;;5.77;4.00;;;;;;;5.96;100.00;98158.19;5053039;28;20238;-80
2023/11/17 04:09:25;;;;;;;7.23;4.10;;;;;;;5.91;100.00;98166.31;5052477;28;20222;-80
2023/11/17 04:11:53;;;;;;;6.10;4.20;;;;;;;5.91;100.00;98168.94;5051782;28;20286;-80
2023/11/17 04:14:21;;;;;;;7.43;3.73;;;;;;;5.91;100.00;98173.31;5052931;28;20211;-80
2023/11/17 04:16:49;;;;;;;6.60;4.40;;;;;;;5.93;100.00;98176.72;5052196;28;20222;-80
2023/11/17 04:19:17;;;;;;;5.03;3.67;;;;;;;5.94;100.00;98178.44;5052531;28;20275;-80
2023/11/17 04:21:45;;;;;;;4.23;3.33;;;;;;;5.87;100.00;98175.25;5052592;28;20224;-80
2023/11/17 04:24:12;;;;;;;4.93;3.47;;;;;;;5.87;100.00;98177.88;5052621;28;20211;-80
2023/11/17 04:26:40;;;;;;;5.23;3.20;;;;;;;5.90;100.00;98182.97;5052486;28;20213;-81
2023/11/17 04:29:07;;;;;;;7.00;3.47;;;;;;;5.87;100.00;98182.28;5056076;28;20210;-80
2023/11/17 04:31:33;;;;;;;7.33;3.50;;;;;;;5.84;100.00;98175.41;5055620;28;20238;-80
2023/11/17 04:33:59;;;;;;;4.80;3.20;;;;;;;5.81;100.00;98174.72;5055781;28;20216;-81
2023/11/17 04:36:26;;;;;;;5.63;3.40;;;;;;;5.80;100.00;98180.91;5056366;28;20562;-80
2023/11/17 04:38:55;;;;;;;6.20;3.70;;;;;;;5.79;100.00;98189.63;5056486;28;20289;-81
2023/11/17 04:41:23;;;;;;;6.17;3.40;;;;;;;5.77;100.00;98181.84;5055603;28;20238;-80
2023/11/17 04:43:51;;;;;;;6.73;3.70;;;;;;;5.77;100.00;98201.97;5055541;28;20223;-80
2023/11/17 04:46:18;;;;;;;6.33;3.50;;;;;;;5.77;100.00;98197.59;5056123;28;20271;-80
2023/11/17 04:48:44;;;;;;;5.13;3.20;;;;;;;5.73;100.00;98196.03;5055764;28;20217;-80
2023/11/17 04:51:11;;;;;;;5.47;3.53;;;;;;;5.73;100.00;98196.03;5055423;28;20227;-80
2023/11/17 04:53:38;;;;;;;6.30;3.30;;;;;;;5.74;100.00;98197.72;5055270;28;20208;-80
2023/11/17 04:56:07;;;;;;;7.37;3.87;;;;;;;5.76;100.00;98195.91;5055735;28;20219;-80
2023/11/17 04:58:34;;;;;;;5.63;3.53;;;;;;;5.74;100.00;98205.59;5056273;28;20216;-80
2023/11/17 05:01:02;;;;;;;6.73;3.83;;;;;;;5.78;100.00;98208.91;5056121;28;20766;-81
2023/11/17 05:03:29;;;;;;;6.33;4.10;;;;;;;5.74;100.00;98210.00;5055613;28;20204;-80
2023/11/17 05:05:55;;;;;;;7.97;4.07;;;;;;;5.75;100.00;98202.03;5056057;28;20645;-80
2023/11/17 05:08:22;;;;;;;5.50;3.20;;;;;;;5.74;100.00;98213.47;5055863;28;20256;-81
2023/11/17 05:10:49;;;;;;;7.27;3.87;;;;;;;5.70;100.00;98206.69;5055876;28;20214;-80
2023/11/17 05:13:15;;;;;;;6.87;3.47;;;;;;;5.69;100.00;98210.22;5055891;28;20859;-80
2023/11/17 05:15:43;;;;;;;5.90;3.70;;;;;;;5.66;100.00;98214.75;5056686;28;20215;-80
2023/11/17 05:18:11;;;;;;;5.23;3.50;;;;;;;5.69;100.00;98218.06;5056225;28;20204;-80
2023/11/17 05:20:38;;;;;;;5.57;3.07;;;;;;;5.63;100.00;98221.00;5056309;28;20277;-80
2023/11/17 05:23:07;;;;;;;4.53;2.83;;;;;;;5.60;100.00;98215.03;5056487;28;20222;-80
2023/11/17 05:25:34;;;;;;;4.90;3.17;;;;;;;5.63;100.00;98217.53;5055837;28;20218;-80
2023/11/17 05:28:00;;;;;;;4.47;3.40;;;;;;;5.60;100.00;98220.28;5056233;28;20223;-81
2023/11/17 05:30:27;;;;;;;6.27;3.57;;;;;;;5.62;100.00;98223.72;5056088;28;20578;-80
2023/11/17 05:32:53;;;;;;;5.90;3.87;;;;;;;5.63;100.00;98222.78;5055611;28;20239;-81
2023/11/17 05:35:21;;;;;;;5.80;3.23;;;;;;;5.62;100.00;98228.94;5058804;28;20211;-81
2023/11/17 05:37:48;;;;;;;6.87;3.93;;;;;;;5.59;100.00;98229.94;5060174;28;20222;-81
2023/11/17 05:40:15;;;;;;;6.20;3.40;;;;;;;5.66;100.00;98230.47;5060384;28;20234;-82
2023/11/17 05:42:42;;;;;;;6.53;3.57;;;;;;;5.66;100.00;98231.34;5059077;28;20229;-79
2023/11/17 05:45:12;;;;;;;4.50;3.43;;;;;;;5.68;100.00;98229.50;5056647;28;20231;-79
2023/11/17 05:47:38;;;;;;;5.60;3.70;;;;;;;5.71;100.00;98236.34;5058883;28;20262;-79
2023/11/17 05:50:08;;;;;;;5.27;3.70;;;;;;;5.69;100.00;98233.81;5059245;28;20217;-79
2023/11/17 05:52:36;;;;;;;5.60;3.83;;;;;;;5.71;100.00;98239.84;5058745;28;20690;-79
2023/11/17 05:55:04;;;;;;;5.83;3.83;;;;;;;5.74;100.00;98238.84;5059082;28;20215;-79
2023/11/17 05:57:30;;;;;;;5.10;3.87;;;;;;;5.75;100.00;98246.63;5059420;28;20210;-79
2023/11/17 05:59:57;;;;;;;8.00;4.07;;;;;;;5.76;100.00;98245.72;5059357;28;20564;-79
2023/11/17 06:02:27;;;;;;;4.70;3.63;;;;;;;5.75;100.00;98256.28;5055117;28;20227;-79
2023/11/17 06:04:54;;;;;;;5.10;3.53;;;;;;;5.79;100.00;98252.56;5057123;28;20649;-79
2023/11/17 06:07:20;;;;;;;7.13;3.50;;;;;;;5.79;100.00;98249.94;5058629;28;20212;-77
2023/11/17 06:09:48;;;;;;;8.23;4.88;;;;;;;5.81;100.00;98248.97;5056652;28;20431;-80
2023/11/17 06:12:15;;;;;;;5.70;3.30;;;;;;;5.79;100.00;98263.06;5051018;28;20229;-80
2023/11/17 06:14:42;;;;;;;4.37;3.00;;;;;;;5.78;100.00;98259.59;5038875;28;20919;-81
2023/11/17 06:17:09;;;;;;;5.47;3.17;;;;;;;5.82;100.00;98257.72;5039193;28;20280;-81
2023/11/17 06:19:36;;;;;;;6.03;3.50;;;;;;;5.81;100.00;98263.88;5039666;28;20209;-81
2023/11/17 06:22:02;;;;;;;5.13;3.37;;;;;;;5.80;100.00;98270.06;5039638;28;20335;-82
2023/11/17 06:24:29;;;;;;;4.47;2.77;;;;;;;5.80;100.00;98268.25;5040001;28;20568;-82
2023/11/17 06:26:57;;;;;;;5.93;3.40;;;;;;;5.79;100.00;98266.53;5040070;28;20215;-81
2023/11/17 06:29:23;;;;;;;6.07;3.20;;;;;;;5.82;100.00;98268.19;5040225;28;20216;-81
2023/11/17 06:31:51;;;;;;;7.27;3.77;;;;;;;5.84;100.00;98277.69;5040116;28;20236;-81
2023/11/17 06:34:19;;;;;;;4.50;3.00;;;;;;;5.82;100.00;98276.06;5038253;28;20279;-81
2023/11/17 06:36:46;;;;;;;5.13;2.97;;;;;;;5.79;100.00;98276.16;5039157;28;20212;-81
2023/11/17 06:39:18;;;;;;;6.07;3.23;;;;;;;5.80;100.00;98276.13;5037093;28;20549;-85
2023/11/17 06:41:47;;;;;;;4.93;3.17;;;;;;;5.81;100.00;98274.38;5036489;28;20233;-84
2023/11/17 06:44:15;;;;;;;5.60;3.27;;;;;;;5.82;100.00;98276.06;5021006;28;20228;-85
2023/11/17 06:46:42;;;;;;;6.80;3.50;;;;;;;5.82;100.00;98279.56;5038203;28;20224;-85
2023/11/17 06:49:10;;;;;;;5.00;3.43;;;;;;;5.82;100.00;98284.81;5036961;28;20246;-80
2023/11/17 06:51:38;;;;;;;5.57;3.00;;;;;;;5.90;100.00;98285.28;5037312;28;20232;-81
2023/11/17 06:54:10;;;;;;;4.43;3.33;;;;;;;5.90;100.00;98287.91;5037996;28;20231;-81
2023/11/17 06:56:37;;;;;;;3.53;2.97;;;;;;;5.89;100.00;98296.69;5038690;28;20261;-81
2023/11/17 06:59:04;;;;;;;5.37;3.50;;;;;;;5.86;100.00;98294.19;5038345;28;20273;-82
2023/11/17 07:01:32;;;;;;;5.53;3.37;;;;;;;5.88;100.00;98295.00;5038715;28;20255;-81
2023/11/17 07:04:02;;;;;;;5.27;3.10;;;;;;;5.91;100.00;98294.84;5038277;28;20367;-81
2023/11/17 07:06:29;;;;;;;4.10;2.43;;;;;;;5.87;100.00;98308.19;5037708;28;20648;-81
2023/11/17 07:08:55;;;;;;;4.90;2.90;;;;;;;5.86;100.00;98306.47;5038444;28;20220;-82
2023/11/17 07:11:22;;;;;;;5.30;3.47;;;;;;;5.86;100.00;98307.31;5038486;28;20248;-82
2023/11/17 07:13:49;;;;;;;7.97;3.50;;;;;;;5.88;100.00;98315.97;5038829;28;20600;-82
2023/11/17 07:16:18;;;;;;;5.33;3.43;;;;;;;5.87;100.00;98313.41;5038863;28;20296;-82
2023/11/17 07:18:46;;;;;;;4.27;3.13;;;;;;;5.86;100.00;98317.81;5038616;28;20647;-82
2023/11/17 07:21:13;;;;;;;6.27;3.77;;;;;;;5.91;100.00;98326.31;5036827;28;20236;-82
2023/11/17 07:23:43;;;;;;;5.57;3.90;;;;;;;5.91;100.00;98321.06;5035760;28;20227;-81
2023/11/17 07:26:17;;;;;;;6.07;3.50;;;;;;;5.99;100.00;98332.03;5037278;28;20295;-81
2023/11/17 07:28:45;;;;;;;7.87;3.80;;;;;;;5.95;100.00;98332.25;5036855;28;20508;-81
2023/11/17 07:31:12;;;;;;;4.23;3.27;;;;;;;5.96;100.00;98342.69;5039317;28;20239;-82
2023/11/17 07:33:38;;;;;;;6.83;4.17;;;;;;;5.95;100.00;98342.75;5036890;28;20610;-79
2023/11/17 07:36:08;;;;;;;5.30;3.90;;;;;;;5.94;100.00;98344.53;5036913;28;20211;-79
2023/11/17 07:38:36;;;;;;;6.47;4.50;;;;;;;5.96;100.00;98350.56;5037619;28;20216;-82
2023/11/17 07:41:03;;;;;;;7.03;5.00;;;;;;;6.02;100.00;98347.63;5041591;28;20451;-82
2023/11/17 07:43:30;;;;;;;8.20;4.63;;;;;;;6.01;100.00;98356.44;5030011;28;20215;-79
2023/11/17 07:45:56;;;;;;;7.07;4.30;;;;;;;6.04;100.00;98366.78;5029390;28;20212;-79
2023/11/17 07:48:23;;;;;;;8.60;4.50;;;;;;;6.02;100.00;98354.66;5031433;28;20211;-79
2023/11/17 07:50:52;;;;;;;7.90;5.00;;;;;;;6.07;100.00;98363.16;5044179;28;20223;-80
2023/11/17 07:53:20;;;;;;;7.97;4.60;;;;;;;6.10;100.00;98363.84;5032149;28;20281;-80
2023/11/17 07:55:46;;;;;;;8.17;4.90;;;;;;;6.06;100.00;98366.72;5023927;28;20212;-80
2023/11/17 07:58:13;;;;;;;8.67;4.83;;;;;;;6.03;100.00;98378.19;5027477;28;20212;-80
2023/11/17 08:00:40;;;;;;;9.68;6.03;;;;;;;6.06;100.00;98375.44;5039648;28;20445;-80
2023/11/17 08:03:06;;;;;;;8.23;5.13;;;;;;;6.02;100.00;98379.13;5046487;28;20534;-80
2023/11/17 08:05:33;;;;;;;10.57;5.03;;;;;;;6.03;100.00;98377.34;5042688;28;20291;-80
2023/11/17 08:08:00;;;;;;;8.33;4.80;;;;;;;6.08;100.00;98381.47;5028708;28;20215;-80
2023/11/17 08:10:29;;;;;;;7.37;5.07;;;;;;;6.14;100.00;98386.41;5032225;28;20827;-80
2023/11/17 08:12:55;;;;;;;9.70;5.67;;;;;;;6.13;100.00;98389.97;5041496;28;20236;-80
2023/11/17 08:15:22;;;;;;;9.53;5.40;;;;;;;6.17;100.00;98388.88;5037420;28;20212;-80
2023/11/17 08:17:49;;;;;;;8.40;5.40;;;;;;;6.25;100.00;98389.38;5046764;28;20215;-82
2023/11/17 08:20:15;;;;;;;11.53;6.23;;;;;;;6.24;100.00;98398.16;5046651;28;20281;-82
2023/11/17 08:22:42;;;;;;;10.20;6.83;;;;;;;6.23;100.00;98401.72;5028471;28;20232;-79
2023/11/17 08:25:09;;;;;;;12.93;7.83;;;;;;;6.25;100.00;98402.50;5031707;28;20220;-80
2023/11/17 08:27:37;;;;;;;12.07;6.87;;;;;;;6.25;100.00;98394.63;5029548;28;20212;-80
2023/11/17 08:30:07;;;;;;;11.17;7.10;;;;;;;6.22;100.00;98400.00;5027482;28;20205;-80
2023/11/17 08:32:37;;;;;;;11.00;6.77;;;;;;;6.22;100.00;98401.81;5028410;28;20325;-81
2023/11/17 08:35:04;;;;;;;13.00;7.23;;;;;;;6.26;100.00;98404.19;5031475;28;20237;-81
2023/11/17 08:37:32;;;;;;;11.90;7.13;;;;;;;6.25;100.00;98410.38;5029643;28;20212;-81
2023/11/17 08:40:00;;;;;;;10.93;6.40;;;;;;;6.23;100.00;98412.22;5027856;28;20240;-82
2023/11/17 08:42:27;;;;;;;10.30;6.73;;;;;;;6.21;100.00;98408.81;5020283;28;20547;-83
2023/11/17 08:44:54;;;;;;;10.20;6.47;;;;;;;6.29;100.00;98413.72;5026818;28;20220;-82
2023/11/17 08:47:21;;;;;;;10.53;6.20;;;;;;;6.31;100.00;98415.34;5027941;28;20218;-82
2023/11/17 08:49:48;;;;;;;9.07;5.93;;;;;;;6.29;100.00;98417.16;5027742;28;20219;-80
2023/11/17 08:52:15;;;;;;;11.80;6.27;;;;;;;6.29;100.00;98419.78;5039918;28;20236;-81
2023/11/17 08:54:41;;;;;;;12.70;6.37;;;;;;;6.32;100.00;98419.66;5044664;28;20235;-82
2023/11/17 08:57:08;;;;;;;11.03;6.20;;;;;;;6.34;100.00;98415.19;5048871;28;20597;-81
2023/11/17 08:59:37;;;;;;;9.13;5.83;;;;;;;6.37;100.00;98422.06;5048333;28;20222;-81
2023/11/17 09:02:07;;;;;;;10.17;5.47;;;;;;;6.34;100.00;98415.19;5047293;28;20239;-80
2023/11/17 09:04:33;;;;;;;7.63;5.03;;;;;;;6.36;100.00;98429.06;5050336;28;20239;-81
2023/11/17 09:07:00;;;;;;;8.27;5.30;;;;;;;6.35;100.00;98427.38;5036694;28;20224;-81
2023/11/17 09:09:26;;;;;;;8.30;4.77;;;;;;;6.35;100.00;98427.38;5029639;28;20212;-81
2023/11/17 09:11:54;;;;;;;9.20;5.40;;;;;;;6.34;100.00;98438.81;5031679;28;20235;-81
2023/11/17 09:14:20;;;;;;;10.80;5.03;;;;;;;6.37;100.00;98429.94;5025229;28;20828;-81
2023/11/17 09:16:47;;;;;;;10.00;5.53;;;;;;;6.41;100.00;98437.59;5026493;28;20213;-81
2023/11/17 09:19:15;;;;;;;10.70;5.73;;;;;;;6.46;100.00;98430.34;5033753;28;20220;-83
2023/11/17 09:21:42;;;;;;;11.20;5.67;;;;;;;6.49;100.00;98439.84;5059945;28;20574;-83
2023/11/17 09:24:09;;;;;;;9.97;5.80;;;;;;;6.50;100.00;98441.53;5061021;28;20317;-83
2023/11/17 09:26:36;;;;;;;10.67;5.80;;;;;;;6.57;100.00;98443.81;5053162;28;20199;-83
2023/11/17 09:29:02;;;;;;;7.60;4.90;;;;;;;6.55;100.00;98440.41;5041305;28;20200;-83
2023/11/17 09:31:29;;;;;;;9.00;5.80;;;;;;;6.55;100.00;98447.44;5042616;28;20228;-83
2023/11/17 09:33:56;;;;;;;10.40;6.27;;;;;;;6.56;100.00;98442.13;5041288;28;20233;-81
2023/11/17 09:36:26;;;;;;;10.60;6.47;;;;;;;6.56;100.00;98449.13;5037639;28;20208;-82
2023/11/17 09:38:53;;;;;;;8.77;5.80;;;;;;;6.57;100.00;98449.06;5039484;28;20227;-82
2023/11/17 09:41:21;;;;;;;10.37;6.43;;;;;;;6.53;100.00;98447.50;5038169;28;20220;-83
2023/11/17 09:43:48;;;;;;;7.67;5.20;;;;;;;6.53;100.00;98450.13;5038655;28;20208;-82
2023/11/17 09:46:21;;;;;;;10.60;5.83;;;;;;;6.57;100.00;98451.69;5036708;28;20200;-80
2023/11/17 09:48:52;;;;;;;8.07;5.73;;;;;;;6.64;100.00;98452.22;5037910;28;20741;-83
2023/11/17 09:51:18;;;;;;;9.13;6.20;;;;;;;6.68;100.00;98451.16;5036601;28;20216;-81
2023/11/17 09:53:48;;;;;;;11.57;5.80;;;;;;;6.70;100.00;98455.41;5035788;28;20228;-83
2023/11/17 09:56:17;;;;;;;9.83;5.83;;;;;;;6.68;100.00;98448.53;5035958;28;20208;-81
2023/11/17 09:58:47;;;;;;;12.03;5.37;;;;;;;6.73;100.00;98449.16;5037960;28;20749;-82
2023/11/17 10:01:14;;;;;;;9.67;5.93;;;;;;;6.72;100.00;98453.56;5036593;28;20598;-81
2023/11/17 10:03:41;;;;;;;9.50;5.57;;;;;;;6.79;100.00;98448.88;5035681;28;20212;-82
2023/11/17 10:06:10;;;;;;;9.20;5.60;;;;;;;6.92;100.00;98450.81;5035972;28;20209;-81
2023/11/17 10:08:39;;;;;;;7.60;5.57;;;;;;;6.97;100.00;98448.78;5035894;28;20214;-81
2023/11/17 10:11:08;;;;;;;9.50;6.00;;;;;;;6.95;100.00;98450.66;5035996;28;20240;-81
2023/11/17 10:13:38;;;;;;;11.60;5.73;;;;;;;6.91;100.00;98451.72;5035889;28;20232;-82
2023/11/17 10:16:07;;;;;;;8.87;5.43;;;;;;;6.85;100.00;98457.28;5036449;28;20869;-81
2023/11/17 10:18:34;;;;;;;12.97;6.77;;;;;;;6.81;100.00;98458.38;5035755;28;20259;-81
2023/11/17 10:21:02;;;;;;;7.63;5.23;;;;;;;6.81;100.00;98462.75;5035271;28;20225;-82
2023/11/17 10:23:28;;;;;;;12.47;6.83;;;;;;;6.83;100.00;98466.19;5036885;28;20216;-81
2023/11/17 10:25:56;;;;;;;11.50;6.80;;;;;;;6.77;100.00;98467.31;5033889;28;20212;-79
2023/11/17 10:28:27;;;;;;;9.97;6.50;;;;;;;6.74;100.00;98467.50;5034888;28;20585;-82
2023/11/17 10:30:55;;;;;;;11.67;6.43;;;;;;;6.72;100.00;98469.31;5035008;28;20572;-82
2023/11/17 10:33:28;;;;;;;13.43;6.07;;;;;;;6.67;100.00;98471.34;5036321;28;20262;-82
2023/11/17 10:36:02;;;;;;;9.20;5.37;;;;;;;6.68;100.00;98473.03;5038434;28;20303;-82
2023/11/17 10:38:29;;;;;;;9.13;5.70;;;;;;;6.66;100.00;98472.25;5039021;28;20209;-81
2023/11/17 10:40:55;;;;;;;10.30;5.47;;;;;;;6.62;100.00;98473.34;5038474;28;20243;-80
2023/11/17 10:43:22;;;;;;;13.70;6.43;;;;;;;6.63;100.00;98471.53;5038134;28;20219;-81
2023/11/17 10:45:59;;;;;;;10.90;6.30;;;;;;;6.61;100.00;98474.25;5037658;28;20222;-81
2023/11/17 10:48:26;;;;;;;11.23;6.07;;;;;;;6.62;100.00;98468.06;5038822;28;20212;-81
2023/11/17 10:51:04;;;;;;;7.63;5.13;;;;;;;6.65;100.00;98475.78;5038089;28;20204;-81
2023/11/17 10:53:31;;;;;;;7.97;5.00;;;;;;;6.65;100.00;98467.91;5036653;28;20282;-80
2023/11/17 10:55:58;;;;;;;9.77;5.80;;;;;;;6.68;100.00;98466.91;5036141;28;20699;-79
2023/11/17 10:58:25;;;;;;;10.63;6.57;;;;;;;6.70;100.00;98468.56;5036395;28;20208;-80
2023/11/17 11:00:56;;;;;;;11.87;7.47;;;;;;;6.73;100.00;98465.75;5037372;28;20215;-79
2023/11/17 11:03:22;;;;;;;10.53;5.40;;;;;;;6.72;100.00;98463.22;5038330;28;20235;-80
2023/11/17 11:05:51;;;;;;;9.97;5.80;;;;;;;6.77;100.00;98461.25;5035831;28;20208;-84
2023/11/17 11:08:22;;;;;;;9.87;6.70;;;;;;;6.74;100.00;98456.97;5037662;28;20568;-81
2023/11/17 11:10:50;;;;;;;9.02;5.68;;;;;;;6.75;100.00;98457.81;5037255;28;20155;-85
2023/11/17 11:13:17;;;;;;;10.90;6.10;;;;;;;6.75;100.00;98463.94;5036699;28;20212;-80
2023/11/17 11:15:44;;;;;;;8.27;5.77;;;;;;;6.79;100.00;98465.47;5035520;28;20667;-79
2023/11/17 11:18:16;;;;;;;9.33;5.80;;;;;;;6.81;100.00;98468.03;5035135;28;20212;-80
2023/11/17 11:20:45;;;;;;;8.87;5.13;;;;;;;6.82;100.00;98470.59;5034388;28;20208;-80
2023/11/17 11:23:12;;;;;;;8.73;5.07;;;;;;;6.80;100.00;98461.94;5034153;28;20222;-80
2023/11/17 11:25:40;;;;;;;9.20;5.73;;;;;;;6.79;100.00;98470.72;5034371;28;20299;-80
2023/11/17 11:28:08;;;;;;;6.93;4.83;;;;;;;6.81;100.00;98471.50;5034361;28;20208;-80
2023/11/17 11:30:36;;;;;;;7.33;5.17;;;;;;;6.79;100.00;98469.88;5035799;28;20205;-80
2023/11/17 11:33:03;;;;;;;8.00;4.97;;;;;;;6.87;100.00;98475.59;5034906;28;20212;-80
2023/11/17 11:35:31;;;;;;;8.30;5.10;;;;;;;6.91;100.00;98475.38;5034463;28;20229;-80